Nearby METAR Reports

 

KSJC - San Jose, California, USA
Distance from station: NE 9mi, 14km
Updated: Fri, 24-Nov-2017 5:53pm EST
Mostly cloudy
Mostly cloudy
 Wind from NNW
Wind: NNW 7 mph , 11 km/h
Temperature: 73°F , 23°C
Dew Point: 57°F , 14°C
Humidity: 57%
Barometer: 30.01 inHg , 1016.3 hPa
Clouds: Mostly cloudy
Visibility: 10 miles , 16 km
Cloud details: Few Clouds 4000 ft
Mostly cloudy 8500 ft
Mostly cloudy 12000 ft
2017/11/24 22:53 KSJC 242253Z 33006KT 10SM FEW040 BKN085 BKN120 23/14 A3001 RMK AO2 SLP160 T02330139
KNUQ - Moffett Nas/Mtn, California, USA
Distance from station: N 9mi, 14km
Updated: Fri, 24-Nov-2017 5:56pm EST
Clear
Clear
 Wind from N
Wind: N 6 mph , 9 km/h
Temperature: 70°F , 21°C
Dew Point: 57°F , 14°C
Humidity: 64%
Barometer: 30.02 inHg , 1016.6 hPa
Clouds: Clear
Visibility: 10 miles , 16 km
2017/11/24 22:56 KNUQ 242256Z 35005KT 10SM CLR 21/14 A3002 RMK AO2 SLP168 T02110144
 
KPAO - Palo Alto, California, USA
Distance from station: NNW 14mi, 23km
Updated: Fri, 24-Nov-2017 5:47pm EST
Mostly cloudy
Mostly cloudy
 Wind from N
Wind: N 7 mph , 11 km/h
Clouds: Mostly cloudy
Visibility: 10 miles , 16 km
Cloud details: Mostly cloudy 10000 ft
2017/11/24 22:47 KPAO 242247Z 35006KT 10SM BKN100 20/-- A3001
KRHV - San Jose/Reid, California, USA
Distance from station: ENE 12mi, 19km
Updated: Fri, 24-Nov-2017 4:47pm EST
NOT Current
Mostly cloudy
Mostly cloudy
 Wind from N
Wind: N 6 mph , 9 km/h
Temperature: 73°F , 23°C
Dew Point: 57°F , 14°C
Humidity: 57%
Barometer: 29.99 inHg , 1015.6 hPa
Clouds: Mostly cloudy
Visibility: 10 miles , 16 km
Cloud details: Mostly cloudy 8500 ft
2017/11/24 21:47 KRHV 242147Z 35005KT 10SM BKN085 23/14 A2999
 
KOAK - Oakland, California, USA
Distance from station: NNW 31mi, 50km
Updated: Fri, 24-Nov-2017 5:53pm EST
Mostly cloudy
Mostly cloudy
 Wind from W
Wind: W 6 mph , 9 km/h
Temperature: 64°F , 18°C
Dew Point: 57°F , 14°C
Humidity: 78%
Barometer: 30.03 inHg , 1016.9 hPa
Clouds: Mostly cloudy
Visibility: 10 miles , 16 km
Cloud details: Mostly cloudy 14000 ft
Mostly cloudy 22000 ft
2017/11/24 22:53 KOAK 242253Z 27005KT 10SM BKN140 BKN220 18/14 A3003 RMK AO2 SLP168 T01830144
KSQL - San Carlos Airpo, California, USA
Distance from station: NW 21mi, 34km
Updated: Fri, 24-Nov-2017 5:47pm EST
Mostly cloudy
Mostly cloudy
 Wind from NW
Wind: NW 3 mph , 6 km/h
Temperature: 72°F , 22°C
Dew Point: 55°F , 13°C
Humidity: 57%
Barometer: 30.02 inHg , 1016.6 hPa
Clouds: Mostly cloudy
Visibility: 10 miles , 16 km
Cloud details: Mostly cloudy 14000 ft
Mostly cloudy 20000 ft
2017/11/24 22:47 KSQL 242247Z 31003KT 10SM BKN140 BKN200 22/13 A3002
 
KSFO - San Francisco, California, USA
Distance from station: NW 30mi, 49km
Updated: Fri, 24-Nov-2017 5:56pm EST
Mostly cloudy
Mostly cloudy
 Wind from calm
Wind: Calm
Temperature: 68°F , 20°C
Dew Point: 55°F , 13°C
Humidity: 64%
Barometer: 30.01 inHg , 1016.3 hPa
Clouds: Mostly cloudy
Visibility: 10 miles , 16 km
Cloud details: Mostly cloudy 15000 ft
Mostly cloudy 20000 ft
2017/11/24 22:56 KSFO 242256Z 00000KT 10SM BKN150 BKN200 20/13 A3001 RMK AO2 SLP164 T02000133
KE16 - San Martin, California, USA
Distance from station: ESE 27mi, 43km
Updated: Fri, 24-Nov-2017 6:35pm EST
Clear
Clear
 Wind from NW
Wind: NW 9 mph , 15 km/h
Temperature: 72°F , 22°C
Dew Point: 55°F , 13°C
Humidity: 57%
Barometer: 30.01 inHg , 1016.3 hPa
Clouds: Clear
Visibility: 10 miles , 16 km
2017/11/24 23:35 KE16 242335Z AUTO 32008KT 10SM CLR 22/13 A3001 RMK AO2 PWINO PNO
 
KWVI - Watsonville, California, USA
Distance from station: SSE 27mi, 44km
Updated: Fri, 24-Nov-2017 5:53pm EST
Clear
Clear
 Wind from WSW
Wind: WSW 5 mph , 7 km/h
Temperature: 75°F , 24°C
Dew Point: 57°F , 14°C
Humidity: 54%
Barometer: 29.99 inHg , 1015.6 hPa
Clouds: Clear
Visibility: 10 miles , 16 km
2017/11/24 22:53 KWVI 242253Z AUTO 25004KT 10SM CLR 24/14 A2999 RMK AO2 SLP153 T02390139
KHAF - Half Moon Bay, California, USA
Distance from station: WNW 31mi, 50km
Updated: Fri, 24-Nov-2017 6:35pm EST
Clear
Clear
 Wind from NNW
Wind: NNW 14 mph , 22 km/h
Temperature: 61°F , 16°C
Dew Point: 57°F , 14°C
Humidity: 88%
Barometer: 30.00 inHg , 1015.9 hPa
Clouds: Clear
Visibility: 9 miles , 14 km
2017/11/24 23:35 KHAF 242335Z AUTO 34012KT 9SM CLR 16/14 A3000 RMK AO2
 
KHWD - Hayward, California, USA
Distance from station: N 28mi, 44km
Updated: Fri, 24-Nov-2017 5:54pm EST
Mostly cloudy
Mostly cloudy
 Wind from WNW
Wind: WNW 5 mph , 7 km/h
Temperature: 66°F , 19°C
Dew Point: 55°F , 13°C
Humidity: 68%
Barometer: 30.01 inHg , 1016.3 hPa
Clouds: Mostly cloudy
Visibility: 10 miles , 16 km
Cloud details: Mostly cloudy 14000 ft
2017/11/24 22:54 KHWD 242254Z 30004KT 10SM BKN140 19/13 A3001 RMK AO2 SLP172 T01940128
KLVK - Livermore, California, USA
Distance from station: NNE 31mi, 51km
Updated: Fri, 24-Nov-2017 5:53pm EST
Clear
Clear
 Wind from calm
Wind: Calm
Temperature: 73°F , 23°C
Dew Point: 52°F , 11°C
Humidity: 47%
Barometer: 29.99 inHg , 1015.6 hPa
Clouds: Clear
Visibility: 10 miles , 16 km
2017/11/24 22:53 KLVK 242253Z 00000KT 10SM CLR 23/11 A2999 RMK AO2 SLP153 T02330111